createdAt,value
2022-09-06T00:01:49.401Z,66.63
2022-09-06T00:04:19.127Z,66.45
2022-09-06T00:06:48.956Z,66.66
2022-09-06T00:09:18.669Z,66.87
2022-09-06T00:11:51.026Z,66.99
2022-09-06T00:14:20.733Z,66.72
2022-09-06T00:16:50.455Z,66.45
2022-09-06T00:19:20.163Z,66.70
2022-09-06T00:21:50.042Z,67.10
2022-09-06T00:24:19.737Z,67.00
2022-09-06T00:26:52.057Z,67.03
2022-09-06T00:29:21.936Z,67.66
2022-09-06T00:31:51.601Z,67.81
2022-09-06T00:34:21.331Z,67.46
2022-09-06T00:36:51.052Z,68.43
2022-09-06T00:39:20.746Z,68.53
2022-09-06T00:41:53.314Z,68.35
2022-09-06T00:44:22.999Z,69.29
2022-09-06T00:46:55.936Z,69.51
2022-09-06T00:49:30.614Z,70.10
2022-09-06T00:52:03.772Z,70.10
2022-09-06T00:54:34.032Z,70.30
2022-09-06T00:57:07.173Z,71.27
2022-09-06T00:59:40.583Z,70.68
2022-09-06T01:02:10.683Z,69.97
2022-09-06T01:04:44.361Z,70.23
2022-09-06T01:07:22.585Z,70.40
2022-09-06T01:10:11.015Z,70.48
2022-09-06T01:12:53.125Z,70.70
2022-09-06T01:15:35.413Z,70.45
2022-09-06T01:18:20.687Z,70.85
2022-09-06T01:21:10.087Z,71.46
2022-09-06T01:24:05.819Z,71.31
2022-09-06T01:27:01.448Z,70.92
2022-09-06T01:29:39.724Z,71.38
2022-09-06T01:32:14.993Z,71.32
2022-09-06T01:34:50.888Z,70.75
2022-09-06T01:37:22.950Z,71.20
2022-09-06T01:39:52.720Z,71.26
2022-09-06T01:42:26.708Z,71.12
2022-09-06T01:45:03.543Z,71.54
2022-09-06T01:47:42.620Z,71.64
2022-09-06T01:50:37.373Z,72.20
2022-09-06T01:53:16.104Z,71.87
2022-09-06T01:55:52.939Z,72.44
2022-09-06T01:58:43.572Z,73.58
2022-09-06T02:01:24.683Z,74.03
2022-09-06T02:04:01.814Z,74.47
2022-09-06T02:06:35.306Z,75.09
2022-09-06T02:09:09.308Z,73.94
2022-09-06T02:11:44.976Z,74.26
2022-09-06T02:14:20.870Z,74.28
2022-09-06T02:16:56.616Z,74.08
2022-09-06T02:19:30.946Z,74.14
2022-09-06T02:22:01.601Z,72.96
2022-09-06T02:24:34.827Z,72.46
2022-09-06T02:27:04.587Z,72.15
2022-09-06T02:29:34.412Z,74.98
2022-09-06T02:32:11.893Z,76.20
2022-09-06T02:34:43.418Z,75.53
2022-09-06T02:37:14.931Z,75.11
2022-09-06T02:39:44.831Z,75.34
2022-09-06T02:42:17.650Z,75.45
2022-09-06T02:44:47.412Z,75.37
2022-09-06T02:47:19.741Z,75.63
2022-09-06T02:49:49.450Z,74.91
2022-09-06T02:52:19.157Z,74.90
2022-09-06T02:54:48.829Z,74.80
2022-09-06T02:57:18.625Z,74.32
2022-09-06T02:59:48.669Z,74.62
2022-09-06T03:02:21.793Z,76.61
2022-09-06T03:04:51.568Z,78.05
2022-09-06T03:07:21.262Z,84.46
2022-09-06T03:09:51.677Z,86.24
2022-09-06T03:12:21.376Z,90.42
2022-09-06T03:14:54.868Z,88.76
2022-09-06T03:17:27.530Z,88.15
2022-09-06T03:19:57.223Z,89.56
2022-09-06T03:22:26.949Z,89.03
2022-09-06T03:24:56.745Z,88.84
2022-09-06T03:27:26.954Z,90.58
2022-09-06T03:29:56.646Z,91.08
2022-09-06T03:32:29.238Z,90.61
2022-09-06T03:34:59.511Z,89.18
2022-09-06T03:37:29.475Z,89.64
2022-09-06T03:40:00.064Z,90.93
2022-09-06T03:42:30.068Z,91.75
2022-09-06T03:44:59.851Z,91.17
2022-09-06T03:47:32.164Z,91.75
2022-09-06T03:50:01.914Z,89.54
2022-09-06T03:52:31.645Z,89.43
2022-09-06T03:55:01.388Z,90.39
2022-09-06T03:57:31.092Z,92.61
2022-09-06T04:00:00.812Z,93.18
2022-09-06T04:02:33.233Z,90.61
2022-09-06T04:05:03.021Z,93.91
2022-09-06T04:07:32.731Z,92.95
2022-09-06T04:10:02.453Z,91.52
2022-09-06T04:12:32.204Z,92.65
2022-09-06T04:15:01.887Z,95.36
2022-09-06T04:17:34.200Z,97.23
2022-09-06T04:20:03.900Z,95.49
2022-09-06T04:22:33.620Z,96.44
2022-09-06T04:25:03.311Z,96.28
2022-09-06T04:50:51.569Z,96.64
2022-09-06T04:53:21.707Z,95.55
2022-09-06T04:55:51.473Z,95.40
2022-09-06T04:58:21.218Z,94.06
2022-09-06T05:00:51.439Z,93.74
2022-09-06T05:03:21.220Z,93.24
2022-09-06T05:05:53.567Z,91.10
2022-09-06T05:08:23.344Z,91.42
2022-09-06T05:10:55.093Z,92.86
2022-09-06T05:13:24.830Z,91.04
2022-09-06T05:15:54.579Z,91.89
2022-09-06T05:18:24.323Z,92.78
2022-09-06T05:20:57.763Z,92.70
2022-09-06T05:23:27.934Z,94.26
2022-09-06T05:25:58.055Z,94.19
2022-09-06T05:28:27.988Z,95.29
2022-09-06T05:31:08.200Z,93.25
2022-09-06T05:33:38.184Z,91.56
2022-09-06T05:36:11.292Z,93.49
2022-09-06T05:38:41.002Z,94.47
2022-09-06T05:41:10.673Z,93.71
2022-09-06T05:43:40.315Z,93.39
2022-09-06T05:46:10.069Z,93.67
2022-09-06T05:48:40.018Z,94.25
2022-09-06T05:51:14.318Z,94.71
2022-09-06T05:53:45.902Z,94.04
2022-09-06T05:56:16.910Z,95.63
2022-09-06T05:58:46.911Z,94.96
2022-09-06T06:01:21.494Z,94.82
2022-09-06T06:03:55.370Z,95.54
2022-09-06T06:06:29.219Z,97.07
2022-09-06T06:08:59.475Z,95.25
2022-09-06T06:11:31.053Z,96.57
2022-09-06T06:14:01.213Z,96.68
2022-09-06T06:16:31.031Z,98.65
2022-09-06T06:19:00.844Z,96.30
2022-09-06T06:21:34.955Z,96.56
2022-09-06T06:24:06.332Z,98.60
2022-09-06T06:26:38.103Z,95.98
2022-09-06T06:29:09.741Z,94.38
2022-09-06T06:31:41.442Z,95.83
2022-09-06T06:34:11.433Z,96.58
2022-09-06T06:36:44.445Z,96.13
2022-09-06T06:39:14.143Z,94.82
2022-09-06T06:41:43.792Z,94.32
2022-09-06T06:44:13.431Z,94.22
2022-09-06T06:46:43.159Z,93.34
2022-09-06T06:49:12.837Z,94.65
2022-09-06T06:51:45.149Z,93.78
2022-09-06T06:54:14.759Z,91.28
2022-09-06T06:56:45.582Z,91.05
2022-09-06T06:59:15.453Z,90.44
2022-09-06T07:01:45.280Z,88.14
2022-09-06T07:04:15.488Z,84.16
2022-09-06T07:12:35.189Z,79.53
2022-09-06T07:15:05.211Z,77.81
2022-09-06T07:17:35.747Z,77.86
2022-09-06T07:20:13.630Z,77.52
2022-09-06T07:22:46.664Z,76.53
2022-09-06T07:25:21.198Z,75.81
2022-09-06T07:27:51.334Z,77.03
2022-09-06T07:30:21.769Z,78.81
2022-09-06T07:32:51.881Z,76.27
2022-09-06T07:35:22.216Z,76.61
2022-09-06T07:37:59.173Z,74.62
2022-09-06T07:40:30.439Z,75.02
2022-09-06T07:43:00.423Z,73.49
2022-09-06T07:45:30.384Z,74.42
2022-09-06T07:48:01.377Z,73.75
2022-09-06T07:50:50.101Z,73.54
2022-09-06T07:53:30.515Z,71.22
2022-09-06T07:56:02.295Z,71.15
2022-09-06T07:58:32.710Z,70.61
2022-09-06T08:01:18.463Z,68.74
2022-09-06T08:03:49.366Z,69.41
2022-09-06T08:06:19.150Z,70.06
2022-09-06T08:11:25.719Z,67.39
2022-09-06T08:13:57.728Z,65.41
2022-09-06T08:16:30.165Z,65.33
2022-09-06T08:19:01.387Z,62.80
2022-09-06T08:21:33.479Z,61.29
2022-09-06T08:24:07.750Z,61.36
2022-09-06T08:26:40.425Z,60.46
2022-09-06T08:29:12.014Z,60.54
2022-09-06T08:31:43.938Z,61.77
2022-09-06T08:34:14.447Z,60.90
2022-09-06T08:36:45.611Z,61.95
2022-09-06T08:39:17.863Z,60.27
2022-09-06T08:41:54.820Z,59.30
2022-09-06T08:47:17.880Z,57.21
2022-09-06T08:49:49.306Z,55.90
2022-09-06T08:52:34.213Z,55.44
2022-09-06T08:55:22.137Z,54.86
2022-09-06T08:58:08.819Z,55.23
2022-09-06T09:00:40.110Z,54.95
2022-09-06T09:03:16.796Z,55.42
2022-09-06T09:05:51.440Z,55.67
2022-09-06T09:08:27.658Z,57.84
2022-09-06T09:11:03.870Z,55.03
2022-09-06T09:13:38.007Z,54.02
2022-09-06T09:16:08.773Z,56.06
2022-09-06T09:18:42.617Z,55.38
2022-09-06T09:21:12.939Z,54.93
2022-09-06T09:23:42.690Z,55.70
2022-09-06T09:26:17.935Z,54.60
2022-09-06T09:29:06.733Z,54.81
2022-09-06T09:31:38.413Z,56.24
2022-09-06T09:34:08.798Z,55.37
2022-09-06T09:36:39.129Z,54.23
2022-09-06T09:39:12.981Z,53.97
2022-09-06T09:41:45.898Z,52.47
2022-09-06T09:44:22.535Z,55.17
2022-09-06T09:46:52.249Z,55.01
2022-09-06T09:49:32.741Z,55.77
2022-09-06T09:52:12.442Z,56.78
2022-09-06T09:54:45.475Z,54.53
2022-09-06T09:57:21.390Z,54.75
2022-09-06T09:59:54.642Z,53.84
2022-09-06T10:02:28.107Z,53.10
2022-09-06T10:05:05.021Z,51.69
2022-09-06T10:07:36.382Z,52.15
2022-09-06T10:10:09.112Z,51.97
2022-09-06T10:12:44.359Z,51.80
2022-09-06T10:15:35.214Z,51.12
2022-09-06T10:18:05.315Z,50.79
2022-09-06T10:20:43.433Z,50.54
2022-09-06T10:26:14.861Z,50.61
2022-09-06T10:28:47.140Z,51.14
2022-09-06T10:31:39.492Z,47.83
2022-09-06T10:34:23.793Z,47.92
2022-09-06T10:37:05.188Z,47.56
2022-09-06T10:39:47.479Z,47.03
2022-09-06T10:42:27.671Z,45.98
2022-09-06T10:45:16.497Z,47.64
2022-09-06T10:47:58.101Z,47.78
2022-09-06T10:50:45.457Z,48.32
2022-09-06T10:53:21.790Z,48.75
2022-09-06T10:55:58.706Z,48.14
2022-09-06T11:01:37.581Z,51.36
2022-09-06T11:04:13.152Z,50.49
2022-09-06T11:06:48.094Z,50.86
2022-09-06T11:09:25.651Z,51.74
2022-09-06T11:12:05.129Z,50.65
2022-09-06T11:14:36.340Z,51.66
2022-09-06T11:17:12.831Z,53.79
2022-09-06T11:19:48.716Z,51.88
2022-09-06T11:22:44.069Z,49.58
2022-09-06T11:25:48.181Z,50.94
2022-09-06T11:28:22.019Z,50.24
2022-09-06T11:30:58.669Z,48.62
2022-09-06T11:33:35.572Z,51.13
2022-09-06T11:36:21.919Z,51.98
2022-09-06T11:38:59.471Z,51.13
2022-09-06T11:41:33.147Z,51.56
2022-09-06T11:44:03.299Z,51.30
2022-09-06T11:47:00.374Z,50.56
2022-09-06T11:49:41.964Z,51.06
2022-09-06T11:52:41.689Z,50.36
2022-09-06T11:55:16.608Z,50.67
2022-09-06T11:57:50.265Z,50.83
2022-09-06T12:00:24.601Z,50.87
2022-09-06T12:02:55.290Z,50.17
2022-09-06T12:06:14.350Z,50.83
2022-09-06T12:08:47.136Z,51.38
2022-09-06T12:11:46.165Z,51.08
2022-09-06T12:14:32.296Z,51.40
2022-09-06T12:17:29.424Z,51.51
2022-09-06T12:20:08.855Z,52.19
2022-09-06T12:23:06.161Z,51.58
2022-09-06T12:26:02.307Z,51.88
2022-09-06T12:28:48.576Z,52.30
2022-09-06T12:31:35.709Z,53.13
2022-09-06T12:34:11.749Z,53.79
2022-09-06T12:36:52.098Z,55.32
2022-09-06T12:39:23.078Z,54.91
2022-09-06T12:41:59.001Z,57.57
2022-09-06T12:44:35.284Z,58.21
2022-09-06T12:47:14.391Z,57.38
2022-09-06T12:49:44.304Z,57.29
2022-09-06T12:52:15.936Z,57.79
2022-09-06T12:54:48.649Z,59.58
2022-09-06T12:57:25.246Z,61.19
2022-09-06T12:59:56.605Z,59.99
2022-09-06T13:02:36.809Z,60.28
2022-09-06T13:05:11.263Z,57.43
2022-09-06T13:07:45.749Z,57.85
2022-09-06T13:10:18.194Z,56.89
2022-09-06T13:12:53.347Z,54.63
2022-09-06T13:15:25.496Z,58.03
2022-09-06T13:17:56.193Z,60.31
2022-09-06T13:20:29.672Z,56.76
2022-09-06T13:23:11.169Z,57.88
2022-09-06T13:25:50.442Z,58.54
2022-09-06T13:28:30.694Z,59.75
2022-09-06T13:31:09.622Z,60.37
2022-09-06T13:33:40.535Z,60.77
2022-09-06T13:36:25.992Z,61.39
2022-09-06T13:38:55.730Z,60.60
2022-09-06T13:41:41.648Z,60.07
2022-09-06T13:44:30.187Z,60.36
2022-09-06T13:46:59.926Z,61.45
2022-09-06T13:49:34.026Z,61.66
2022-09-06T13:52:05.481Z,62.28
2022-09-06T13:54:35.649Z,64.05
2022-09-06T13:57:05.777Z,64.23
2022-09-06T13:59:38.344Z,64.63
2022-09-06T14:02:11.203Z,65.13
2022-09-06T14:04:41.069Z,64.08
2022-09-06T14:07:10.744Z,64.22
2022-09-06T14:09:40.755Z,63.46
2022-09-06T14:12:11.013Z,64.08
2022-09-06T14:14:44.733Z,65.88
2022-09-06T14:17:14.733Z,65.51
2022-09-06T14:19:44.460Z,66.00
2022-09-06T14:22:14.132Z,65.77
2022-09-06T14:24:43.779Z,65.30
2022-09-06T14:27:13.495Z,64.54
2022-09-06T14:29:45.733Z,64.89
2022-09-06T14:32:19.242Z,66.08
2022-09-06T14:34:51.490Z,66.40
2022-09-06T14:37:21.798Z,67.94
2022-09-06T14:39:52.032Z,67.16
2022-09-06T14:42:24.650Z,68.07
2022-09-06T14:44:57.269Z,69.54
2022-09-06T14:47:27.348Z,70.23
2022-09-06T14:49:57.003Z,71.16
2022-09-06T14:52:26.718Z,74.63
2022-09-06T14:54:56.438Z,76.29
2022-09-06T14:57:26.271Z,78.03
2022-09-06T14:59:59.347Z,78.06
2022-09-06T15:02:29.307Z,81.44
2022-09-06T15:04:59.025Z,81.44
2022-09-06T15:07:28.692Z,82.61
2022-09-06T15:09:58.377Z,82.92
2022-09-06T15:12:28.094Z,86.68
2022-09-06T15:15:00.357Z,86.97
2022-09-06T15:17:30.008Z,86.02
2022-09-06T15:19:59.690Z,83.88
2022-09-06T15:22:29.381Z,85.42
2022-09-06T15:24:59.079Z,86.75
2022-09-06T15:27:29.578Z,87.03
2022-09-06T15:30:01.958Z,87.41
2022-09-06T15:32:31.754Z,88.32
2022-09-06T15:35:04.705Z,87.68
2022-09-06T15:37:34.632Z,87.07
2022-09-06T15:40:04.770Z,86.07
2022-09-06T15:42:34.529Z,84.82
2022-09-06T15:45:07.303Z,87.08
2022-09-06T15:47:37.471Z,82.51
2022-09-06T15:50:07.977Z,79.75
2022-09-06T15:52:37.689Z,78.26
2022-09-06T15:55:20.496Z,76.54
2022-09-06T15:57:50.377Z,73.18
2022-09-06T16:00:23.833Z,76.04
2022-09-06T16:02:53.571Z,77.28
2022-09-06T16:08:12.987Z,77.05
2022-09-06T16:10:42.940Z,78.96
2022-09-06T16:13:13.157Z,79.33
2022-09-06T16:15:45.694Z,79.59
2022-09-06T16:18:16.521Z,79.11
2022-09-06T16:20:46.220Z,76.93
2022-09-06T16:23:15.897Z,77.80
2022-09-06T16:25:45.533Z,76.49
2022-09-06T16:28:15.206Z,76.74
2022-09-06T16:30:47.573Z,78.18
2022-09-06T16:33:18.015Z,76.81
2022-09-06T16:35:47.849Z,75.20
2022-09-06T16:38:17.952Z,76.24
2022-09-06T16:40:49.105Z,76.00
2022-09-06T16:43:19.254Z,72.78
2022-09-06T16:46:01.236Z,71.71
2022-09-06T16:48:31.803Z,68.57
2022-09-06T16:51:10.660Z,70.17
2022-09-06T16:53:42.157Z,68.95
2022-09-06T16:56:12.633Z,65.30
2022-09-06T16:58:42.534Z,70.71
2022-09-06T17:01:15.350Z,62.34
2022-09-06T17:03:45.264Z,61.52
2022-09-06T17:06:14.963Z,59.61
2022-09-06T17:08:44.831Z,59.00
2022-09-06T17:11:17.313Z,62.62
2022-09-06T17:13:49.544Z,65.05
2022-09-06T17:16:35.248Z,65.70
2022-09-06T17:19:05.237Z,65.92
2022-09-06T17:21:35.693Z,63.93
2022-09-06T17:24:05.960Z,63.51
2022-09-06T17:26:37.703Z,68.13
2022-09-06T17:29:07.422Z,67.79
2022-09-06T17:31:39.878Z,67.31
2022-09-06T17:34:09.732Z,68.12
2022-09-06T17:36:39.999Z,68.40
2022-09-06T17:39:11.791Z,69.16
2022-09-06T17:41:45.757Z,69.04
2022-09-06T17:44:17.135Z,68.40
2022-09-06T17:47:11.829Z,67.22
2022-09-06T17:49:39.938Z,68.84
2022-09-06T17:52:09.901Z,70.86
2022-09-06T17:54:39.691Z,71.79
2022-09-06T17:57:09.457Z,71.91
2022-09-06T17:59:39.659Z,71.91
2022-09-06T18:02:12.058Z,74.04
2022-09-06T18:04:41.812Z,72.83
2022-09-06T18:07:11.649Z,73.14
2022-09-06T18:09:41.784Z,73.70
2022-09-06T18:12:11.618Z,73.96
2022-09-06T18:14:41.428Z,74.84
2022-09-06T18:17:13.754Z,74.19
2022-09-06T18:19:44.884Z,75.42
2022-09-06T18:22:14.570Z,75.64
2022-09-06T18:24:44.254Z,76.49
2022-09-06T18:27:13.969Z,76.89
2022-09-06T18:29:43.697Z,77.84
2022-09-06T18:32:16.006Z,77.96
2022-09-06T18:34:45.746Z,79.63
2022-09-06T18:37:15.425Z,79.81
2022-09-06T18:39:45.232Z,79.42
2022-09-06T18:42:15.025Z,79.84
2022-09-06T18:44:44.694Z,79.59
2022-09-06T18:47:17.328Z,79.55
2022-09-06T18:49:47.151Z,79.64
2022-09-06T18:52:18.124Z,78.71
2022-09-06T18:54:49.139Z,78.81
2022-09-06T18:57:19.294Z,78.50
2022-09-06T18:59:48.992Z,78.58
2022-09-06T19:02:23.600Z,79.21
2022-09-06T19:04:54.455Z,78.74
2022-09-06T19:07:24.545Z,78.05
2022-09-06T19:09:54.437Z,78.25
2022-09-06T19:12:24.175Z,79.05
2022-09-06T19:14:53.867Z,79.68
2022-09-06T19:17:26.427Z,81.62
2022-09-06T19:19:56.135Z,82.12
2022-09-06T19:22:27.126Z,82.39
2022-09-06T19:24:56.840Z,83.35
2022-09-06T19:27:27.523Z,81.62
2022-09-06T19:29:57.702Z,80.05
2022-09-06T19:32:30.080Z,78.86
2022-09-06T19:35:01.489Z,79.35
2022-09-06T19:37:32.447Z,79.18
2022-09-06T19:40:02.200Z,79.93
2022-09-06T19:42:32.180Z,79.00
2022-09-06T19:45:01.994Z,78.88
2022-09-06T19:47:34.326Z,78.71
2022-09-06T19:50:04.074Z,78.96
2022-09-06T19:52:33.836Z,78.59
2022-09-06T19:55:03.593Z,79.03
2022-09-06T19:57:33.274Z,79.03
2022-09-06T20:00:03.423Z,78.78
2022-09-06T20:02:35.771Z,78.84
2022-09-06T20:05:05.564Z,79.55
2022-09-06T20:07:35.259Z,79.51
2022-09-06T20:10:04.942Z,79.86
2022-09-06T20:12:34.683Z,80.16
2022-09-06T20:15:04.421Z,80.39
2022-09-06T20:17:36.834Z,79.92
2022-09-06T20:20:07.495Z,80.69
2022-09-06T20:22:37.225Z,81.84
2022-09-06T20:25:08.829Z,82.55
2022-09-06T20:27:41.375Z,83.41
2022-09-06T20:30:15.185Z,82.36
2022-09-06T20:32:47.501Z,81.83
2022-09-06T20:35:17.291Z,83.75
2022-09-06T20:37:46.989Z,83.88
2022-09-06T20:40:16.842Z,84.39
2022-09-06T20:42:46.845Z,84.00
2022-09-06T20:45:17.873Z,82.58
2022-09-06T20:47:50.238Z,81.69
2022-09-06T20:50:20.078Z,81.83
2022-09-06T20:52:49.893Z,82.42
2022-09-06T20:55:19.785Z,81.62
2022-09-06T20:57:50.112Z,81.02
2022-09-06T21:00:20.878Z,82.73
2022-09-06T21:02:53.188Z,83.94
2022-09-06T21:05:22.868Z,83.90
2022-09-06T21:07:52.608Z,82.32
2022-09-06T21:10:22.309Z,82.16
2022-09-06T21:12:52.825Z,81.43
2022-09-06T21:15:22.507Z,81.32
2022-09-06T21:17:54.839Z,81.11
2022-09-06T21:20:24.577Z,82.44
2022-09-06T21:22:54.313Z,82.36
2022-09-06T21:25:23.999Z,83.00
2022-09-06T21:27:55.743Z,82.40
2022-09-06T21:30:26.064Z,83.64
2022-09-06T21:33:01.291Z,84.34
2022-09-06T21:35:30.992Z,82.74
2022-09-06T21:38:00.760Z,81.83
2022-09-06T21:40:30.466Z,81.78
2022-09-06T21:43:00.146Z,81.46
2022-09-06T21:45:30.487Z,81.05
2022-09-06T21:48:02.913Z,81.26
2022-09-06T21:50:35.626Z,80.41
2022-09-06T21:53:05.335Z,79.81
2022-09-06T21:55:35.260Z,77.90
2022-09-06T21:58:04.974Z,77.73
2022-09-06T22:00:34.705Z,77.55
2022-09-06T22:03:07.499Z,77.15
2022-09-06T22:05:37.575Z,76.80
2022-09-06T22:08:07.242Z,76.69
2022-09-06T22:10:36.924Z,75.68
2022-09-06T22:13:06.576Z,75.84
2022-09-06T22:15:40.520Z,77.82
2022-09-06T22:18:13.670Z,76.60
2022-09-06T22:20:43.507Z,76.20
2022-09-06T22:23:14.646Z,76.16
2022-09-06T22:25:44.563Z,77.60
2022-09-06T22:28:14.240Z,77.61
2022-09-06T22:30:44.905Z,78.09
2022-09-06T22:33:17.153Z,77.22
2022-09-06T22:35:46.884Z,75.99
2022-09-06T22:38:17.115Z,76.31
2022-09-06T22:40:46.800Z,77.70
2022-09-06T22:43:17.051Z,79.38
2022-09-06T22:45:51.838Z,79.21
2022-09-06T22:48:24.737Z,77.75
2022-09-06T22:50:54.408Z,76.93
2022-09-06T22:53:24.039Z,75.67
2022-09-06T22:55:53.761Z,76.52
2022-09-06T22:58:23.611Z,76.12
2022-09-06T23:00:53.653Z,75.65
2022-09-06T23:03:26.217Z,77.09
2022-09-06T23:05:56.196Z,75.14
2022-09-06T23:08:25.902Z,74.68
2022-09-06T23:10:55.691Z,74.18
2022-09-06T23:13:25.439Z,73.28
2022-09-06T23:15:55.332Z,73.40
2022-09-06T23:18:27.705Z,72.83
2022-09-06T23:20:57.559Z,73.24
2022-09-06T23:23:27.368Z,73.71
2022-09-06T23:25:57.034Z,73.56
2022-09-06T23:28:26.863Z,73.70
2022-09-06T23:30:56.699Z,73.30
2022-09-06T23:33:29.262Z,73.54
2022-09-06T23:35:59.024Z,73.53
2022-09-06T23:38:28.781Z,72.70
2022-09-06T23:40:58.625Z,73.10
2022-09-06T23:43:28.404Z,73.72
2022-09-06T23:45:58.682Z,73.68
2022-09-06T23:48:31.576Z,72.76
2022-09-06T23:51:01.830Z,73.30
2022-09-06T23:53:31.847Z,72.12
2022-09-06T23:56:01.944Z,70.69
2022-09-06T23:58:31.788Z,70.67
